createdAt,value
2022-08-11T00:02:36.379Z,93559.28
2022-08-11T00:05:09.090Z,93553.56
2022-08-11T00:07:54.787Z,93554.13
2022-08-11T00:10:23.460Z,93548.34
2022-08-11T00:12:52.038Z,93546.28
2022-08-11T00:15:19.315Z,93543.84
2022-08-11T00:17:47.143Z,93549.25
2022-08-11T00:20:16.961Z,93539.78
2022-08-11T00:22:46.660Z,93547.13
2022-08-11T00:27:47.254Z,93542.72
2022-08-11T00:30:15.688Z,93534.00
2022-08-11T00:32:44.445Z,93531.31
2022-08-11T00:35:55.474Z,93529.47
2022-08-11T00:38:01.541Z,93526.59
2022-08-11T00:40:38.805Z,93535.06
2022-08-11T00:43:10.607Z,93532.88
2022-08-11T00:45:50.571Z,93531.81
2022-08-11T00:48:36.602Z,93533.62
2022-08-11T00:53:53.495Z,93534.00
2022-08-11T00:56:39.650Z,93536.56
2022-08-11T00:59:34.990Z,93533.03
2022-08-11T01:02:15.604Z,93529.19
2022-08-11T01:05:12.732Z,93533.72
2022-08-11T01:08:05.662Z,93528.16
2022-08-11T01:10:45.095Z,93536.88
2022-08-11T01:13:12.522Z,93540.25
2022-08-11T01:15:58.841Z,93536.19
2022-08-11T01:18:45.892Z,93539.16
2022-08-11T01:21:14.270Z,93536.13
2022-08-11T01:23:56.718Z,93527.44
2022-08-11T01:26:39.157Z,93529.78
2022-08-11T01:29:24.720Z,93525.62
2022-08-11T01:31:58.235Z,93525.38
2022-08-11T01:34:28.243Z,93533.91
2022-08-11T01:37:00.578Z,93528.03
2022-08-11T01:39:30.693Z,93523.34
2022-08-11T01:42:19.996Z,93526.78
2022-08-11T01:44:47.252Z,93526.00
2022-08-11T01:47:53.263Z,93515.72
2022-08-11T01:50:21.642Z,93511.50
2022-08-11T01:53:04.375Z,93517.84
2022-08-11T01:55:47.926Z,93515.72
2022-08-11T01:58:44.028Z,93515.47
2022-08-11T02:01:23.474Z,93512.25
2022-08-11T02:03:51.446Z,93519.91
2022-08-11T02:06:54.523Z,93520.91
2022-08-11T02:09:22.358Z,93512.69
2022-08-11T02:11:52.801Z,93517.97
2022-08-11T02:14:31.971Z,93513.69
2022-08-11T02:17:05.890Z,93520.06
2022-08-11T02:19:54.772Z,93515.00
2022-08-11T02:22:49.184Z,93515.09
2022-08-11T02:25:36.386Z,93523.59
2022-08-11T02:28:21.856Z,93515.31
2022-08-11T02:31:22.526Z,93516.66
2022-08-11T02:34:23.081Z,93518.34
2022-08-11T02:37:04.113Z,93518.84
2022-08-11T02:39:41.953Z,93518.09
2022-08-11T02:42:42.224Z,93512.81
2022-08-11T02:45:09.993Z,93512.88
2022-08-11T02:47:40.116Z,93509.19
2022-08-11T02:50:19.712Z,93510.00
2022-08-11T02:52:50.309Z,93512.63
2022-08-11T02:55:44.441Z,93508.69
2022-08-11T02:58:27.203Z,93508.97
2022-08-11T03:01:11.707Z,93509.97
2022-08-11T03:03:47.187Z,93511.50
2022-08-11T03:06:21.029Z,93513.06
2022-08-11T03:09:08.816Z,93508.84
2022-08-11T03:12:00.889Z,93512.56
2022-08-11T03:14:58.838Z,93514.84
2022-08-11T03:17:32.720Z,93512.50
2022-08-11T03:20:12.253Z,93512.50
2022-08-11T03:22:51.506Z,93514.56
2022-08-11T03:25:32.182Z,93518.56
2022-08-11T03:28:10.306Z,93518.12
2022-08-11T03:30:48.861Z,93515.22
2022-08-11T03:33:54.622Z,93513.69
2022-08-11T03:37:17.150Z,93520.75
2022-08-11T03:39:55.441Z,93522.63
2022-08-11T03:42:29.114Z,93525.75
2022-08-11T03:45:15.213Z,93523.37
2022-08-11T03:48:01.284Z,93520.50
2022-08-11T03:50:49.722Z,93523.34
2022-08-11T03:53:38.229Z,93521.53
2022-08-11T03:56:24.275Z,93523.72
2022-08-11T03:59:01.059Z,93532.69
2022-08-11T04:01:29.816Z,93529.44
2022-08-11T04:04:09.739Z,93530.25
2022-08-11T04:06:37.345Z,93531.03
2022-08-11T04:09:20.507Z,93525.81
2022-08-11T04:11:47.879Z,93526.59
2022-08-11T04:14:54.730Z,93523.41
2022-08-11T04:17:41.481Z,93528.41
2022-08-11T04:20:19.047Z,93519.97
2022-08-11T04:23:03.412Z,93526.12
2022-08-11T04:25:58.556Z,93530.84
2022-08-11T04:28:32.183Z,93530.34
2022-08-11T04:31:44.088Z,93527.44
2022-08-11T04:34:08.517Z,93525.31
2022-08-11T04:37:12.892Z,93530.06
2022-08-11T04:39:59.030Z,93529.50
2022-08-11T04:43:11.577Z,93531.84
2022-08-11T04:45:38.745Z,93523.13
2022-08-11T04:48:34.291Z,93529.22
2022-08-11T04:51:26.307Z,93530.75
2022-08-11T04:54:20.875Z,93528.66
2022-08-11T04:57:11.000Z,93534.25
2022-08-11T05:00:16.059Z,93525.97
2022-08-11T05:03:18.917Z,93527.25
2022-08-11T05:05:56.587Z,93531.06
2022-08-11T05:08:26.730Z,93524.94
2022-08-11T05:11:12.970Z,93522.00
2022-08-11T05:14:04.740Z,93521.13
2022-08-11T05:17:23.313Z,93531.28
2022-08-11T05:20:23.021Z,93528.94
2022-08-11T05:23:10.504Z,93526.69
2022-08-11T05:26:44.857Z,93527.72
2022-08-11T05:29:19.882Z,93541.59
2022-08-11T05:32:14.852Z,93536.09
2022-08-11T05:34:54.618Z,93536.91
2022-08-11T05:37:33.257Z,93533.19
2022-08-11T05:40:25.875Z,93530.53
2022-08-11T05:43:15.749Z,93525.94
2022-08-11T05:46:03.821Z,93525.31
2022-08-11T05:48:55.031Z,93523.75
2022-08-11T05:51:54.885Z,93524.19
2022-08-11T05:54:42.297Z,93523.44
2022-08-11T05:57:10.603Z,93518.66
2022-08-11T06:00:01.875Z,93514.97
2022-08-11T06:02:33.759Z,93507.25
2022-08-11T06:05:02.315Z,93514.13
2022-08-11T06:07:48.666Z,93515.81
2022-08-11T06:10:31.079Z,93516.13
2022-08-11T06:12:58.659Z,93509.94
2022-08-11T06:15:26.769Z,93510.44
2022-08-11T06:17:55.809Z,93510.78
2022-08-11T06:20:25.075Z,93504.28
2022-08-11T06:22:57.765Z,93505.78
2022-08-11T06:25:31.311Z,93502.78
2022-08-11T06:28:00.079Z,93499.59
2022-08-11T06:30:42.736Z,93500.03
2022-08-11T06:33:15.375Z,93497.84
2022-08-11T06:36:02.972Z,93502.91
2022-08-11T06:38:47.193Z,93501.63
2022-08-11T06:41:30.951Z,93503.16
2022-08-11T06:44:13.997Z,93498.34
2022-08-11T06:46:42.858Z,93493.88
2022-08-11T06:49:30.604Z,93497.75
2022-08-11T06:52:01.766Z,93491.44
2022-08-11T06:54:35.234Z,93488.66
2022-08-11T06:57:30.910Z,93489.41
2022-08-11T07:00:18.484Z,93494.16
2022-08-11T07:02:51.968Z,93502.03
2022-08-11T07:05:38.973Z,93501.84
2022-08-11T07:08:43.841Z,93497.97
2022-08-11T07:11:33.107Z,93494.56
2022-08-11T07:14:20.884Z,93497.97
2022-08-11T07:16:49.634Z,93499.28
2022-08-11T07:19:41.117Z,93494.34
2022-08-11T07:22:29.514Z,93502.66
2022-08-11T07:25:19.944Z,93503.06
2022-08-11T07:28:08.877Z,93507.28
2022-08-11T07:30:40.062Z,93502.00
2022-08-11T07:33:08.677Z,93501.84
2022-08-11T07:35:44.006Z,93501.09
2022-08-11T07:38:22.695Z,93503.47
2022-08-11T07:40:52.965Z,93498.75
2022-08-11T07:43:20.698Z,93493.09
2022-08-11T07:46:06.721Z,93493.66
2022-08-11T07:48:53.428Z,93494.75
2022-08-11T07:51:39.235Z,93488.31
2022-08-11T07:54:16.303Z,93497.00
2022-08-11T07:56:54.260Z,93491.84
2022-08-11T08:00:00.674Z,93494.97
2022-08-11T08:02:58.632Z,93500.56
2022-08-11T08:05:45.243Z,93501.41
2022-08-11T08:08:33.280Z,93496.28
2022-08-11T08:11:22.523Z,93492.22
2022-08-11T08:14:14.058Z,93492.31
2022-08-11T08:17:00.756Z,93501.81
2022-08-11T08:19:28.653Z,93496.47
2022-08-11T08:22:11.168Z,93490.81
2022-08-11T08:24:44.303Z,93487.06
2022-08-11T08:27:14.471Z,93490.69
2022-08-11T08:30:02.499Z,93489.25
2022-08-11T08:32:32.075Z,93493.50
2022-08-11T08:35:00.140Z,93485.22
2022-08-11T08:37:45.849Z,93489.28
2022-08-11T08:40:15.496Z,93486.75
2022-08-11T08:42:46.821Z,93488.56
2022-08-11T08:45:18.694Z,93478.34
2022-08-11T08:47:52.608Z,93477.06
2022-08-11T08:50:27.675Z,93478.56
2022-08-11T08:52:58.445Z,93473.81
2022-08-11T08:55:27.475Z,93477.34
2022-08-11T08:57:56.098Z,93473.59
2022-08-11T09:00:23.964Z,93480.38
2022-08-11T09:02:52.056Z,93475.88
2022-08-11T09:05:20.040Z,93470.41
2022-08-11T09:07:51.360Z,93465.94
2022-08-11T09:10:20.478Z,93465.25
2022-08-11T09:12:48.644Z,93459.56
2022-08-11T09:15:19.333Z,93458.97
2022-08-11T09:17:53.794Z,93462.16
2022-08-11T09:20:22.673Z,93449.94
2022-08-11T09:24:07.442Z,93445.56
2022-08-11T09:26:19.592Z,93443.75
2022-08-11T09:28:47.617Z,93440.84
2022-08-11T09:31:15.513Z,93448.38
2022-08-11T09:33:44.018Z,93447.38
2022-08-11T09:36:31.639Z,93442.62
2022-08-11T09:39:18.900Z,93453.47
2022-08-11T09:42:01.909Z,93449.34
2022-08-11T09:44:50.161Z,93444.75
2022-08-11T09:47:28.538Z,93436.38
2022-08-11T09:50:16.433Z,93431.37
2022-08-11T10:05:49.749Z,93416.59
2022-08-11T10:08:20.520Z,93422.28
2022-08-11T10:10:48.666Z,93415.22
2022-08-11T10:14:31.496Z,93407.91
2022-08-11T10:16:15.305Z,93407.78
2022-08-11T10:18:54.582Z,93402.72
2022-08-11T10:21:28.719Z,93408.37
2022-08-11T10:24:16.005Z,93413.88
2022-08-11T10:26:54.751Z,93411.31
2022-08-11T10:29:45.150Z,93407.41
2022-08-11T10:32:57.931Z,93400.47
2022-08-11T10:35:30.918Z,93411.03
2022-08-11T10:38:08.253Z,93401.09
2022-08-11T10:40:40.818Z,93396.84
2022-08-11T10:43:15.751Z,93393.19
2022-08-11T10:46:29.574Z,93386.13
2022-08-11T10:48:59.405Z,93384.16
2022-08-11T10:51:51.202Z,93381.97
2022-08-11T10:54:40.678Z,93388.22
2022-08-11T10:57:27.870Z,93379.97
2022-08-11T10:59:57.124Z,93381.97
2022-08-11T11:02:27.387Z,93379.06
2022-08-11T11:05:13.323Z,93383.03
2022-08-11T11:07:55.333Z,93375.59
2022-08-11T11:10:22.973Z,93379.22
2022-08-11T11:13:12.094Z,93378.09
2022-08-11T11:15:59.783Z,93376.91
2022-08-11T11:18:36.220Z,93371.06
2022-08-11T11:21:06.738Z,93374.56
2022-08-11T11:23:40.970Z,93380.09
2022-08-11T11:26:14.802Z,93374.06
2022-08-11T11:29:01.319Z,93384.44
2022-08-11T11:31:31.684Z,93378.41
2022-08-11T11:34:24.027Z,93379.59
2022-08-11T11:36:55.519Z,93375.34
2022-08-11T11:39:27.834Z,93376.16
2022-08-11T11:41:57.145Z,93376.19
2022-08-11T11:44:25.936Z,93380.69
2022-08-11T11:46:54.065Z,93376.25
2022-08-11T11:51:53.114Z,93380.91
2022-08-11T11:54:24.723Z,93386.75
2022-08-11T11:56:53.760Z,93388.09
2022-08-11T11:59:41.228Z,93378.37
2022-08-11T12:02:12.168Z,93377.28
2022-08-11T12:04:44.716Z,93379.19
2022-08-11T12:07:30.738Z,93370.22
2022-08-11T12:09:59.144Z,93364.28
2022-08-11T12:12:45.422Z,93359.72
2022-08-11T12:15:13.643Z,93354.69
2022-08-11T12:17:41.123Z,93360.25
2022-08-11T12:20:33.551Z,93362.13
2022-08-11T12:23:15.676Z,93368.88
2022-08-11T12:26:26.387Z,93366.88
2022-08-11T12:28:51.550Z,93362.09
2022-08-11T12:31:23.179Z,93357.75
2022-08-11T12:33:51.113Z,93359.72
2022-08-11T12:36:19.780Z,93364.72
2022-08-11T12:38:51.456Z,93352.22
2022-08-11T12:41:40.196Z,93351.88
2022-08-11T12:44:44.922Z,93350.13
2022-08-11T12:47:16.789Z,93355.66
2022-08-11T12:50:22.776Z,93354.37
2022-08-11T12:52:54.321Z,93344.97
2022-08-11T12:55:42.979Z,93345.75
2022-08-11T12:58:30.894Z,93347.78
2022-08-11T13:01:16.904Z,93347.13
2022-08-11T13:04:03.320Z,93356.63
2022-08-11T13:06:30.990Z,93353.75
2022-08-11T13:09:01.414Z,93354.56
2022-08-11T13:11:56.633Z,93353.13
2022-08-11T13:14:26.346Z,93347.47
2022-08-11T13:17:12.595Z,93346.13
2022-08-11T13:19:47.439Z,93345.41
2022-08-11T13:22:18.920Z,93338.81
2022-08-11T13:24:49.168Z,93348.97
2022-08-11T13:27:19.166Z,93354.66
2022-08-11T13:29:48.189Z,93352.47
2022-08-11T13:32:17.179Z,93341.97
2022-08-11T13:34:45.901Z,93352.22
2022-08-11T13:37:14.850Z,93355.78
2022-08-11T13:39:47.686Z,93359.63
2022-08-11T13:42:16.694Z,93347.69
2022-08-11T13:44:44.435Z,93342.91
2022-08-11T13:47:13.754Z,93345.28
2022-08-11T13:49:42.914Z,93350.69
2022-08-11T13:52:15.095Z,93352.69
2022-08-11T13:54:43.560Z,93353.44
2022-08-11T13:58:05.993Z,93352.19
2022-08-11T14:00:23.350Z,93348.09
2022-08-11T14:02:56.192Z,93334.84
2022-08-11T14:05:26.610Z,93338.81
2022-08-11T14:07:57.479Z,93345.84
2022-08-11T14:10:29.191Z,93339.47
2022-08-11T14:13:25.570Z,93339.66
2022-08-11T14:15:54.177Z,93341.06
2022-08-11T14:18:22.764Z,93339.63
2022-08-11T14:21:13.405Z,93333.38
2022-08-11T14:23:42.746Z,93329.50
2022-08-11T14:26:23.789Z,93337.38
2022-08-11T14:28:55.465Z,93337.06
2022-08-11T14:31:24.463Z,93327.41
2022-08-11T14:34:00.006Z,93340.41
2022-08-11T14:36:39.339Z,93331.50
2022-08-11T14:39:13.191Z,93340.34
2022-08-11T14:42:10.036Z,93331.94
2022-08-11T14:45:04.636Z,93337.97
2022-08-11T14:47:35.391Z,93338.28
2022-08-11T14:50:10.370Z,93337.34
2022-08-11T14:52:43.606Z,93335.03
2022-08-11T14:55:30.872Z,93336.66
2022-08-11T14:57:59.049Z,93325.16
2022-08-11T15:00:26.986Z,93332.97
2022-08-11T15:03:11.392Z,93324.44
2022-08-11T15:05:52.432Z,93329.00
2022-08-11T15:08:48.447Z,93326.66
2022-08-11T15:11:36.225Z,93332.66
2022-08-11T15:14:05.240Z,93332.87
2022-08-11T15:16:51.530Z,93324.97
2022-08-11T15:19:21.530Z,93328.22
2022-08-11T15:22:08.949Z,93326.34
2022-08-11T15:24:36.958Z,93327.31
2022-08-11T15:27:30.535Z,93324.56
2022-08-11T15:30:32.859Z,93320.41
2022-08-11T15:33:30.763Z,93326.25
2022-08-11T15:36:16.650Z,93317.56
2022-08-11T15:38:47.766Z,93314.44
2022-08-11T15:41:36.278Z,93318.53
2022-08-11T15:44:44.479Z,93317.91
2022-08-11T15:47:15.160Z,93317.72
2022-08-11T15:50:11.779Z,93318.00
2022-08-11T15:52:34.969Z,93311.75
2022-08-11T15:55:08.539Z,93313.66
2022-08-11T15:57:55.908Z,93316.66
2022-08-11T16:00:42.992Z,93314.38
2022-08-11T16:04:06.094Z,93320.56
2022-08-11T16:06:18.488Z,93326.50
2022-08-11T16:08:46.218Z,93330.53
2022-08-11T16:11:14.069Z,93327.97
2022-08-11T16:13:42.299Z,93326.94
2022-08-11T16:16:17.367Z,93327.59
2022-08-11T16:18:54.134Z,93328.34
2022-08-11T16:21:33.526Z,93327.13
2022-08-11T16:24:06.931Z,93329.47
2022-08-11T16:27:07.523Z,93336.25
2022-08-11T16:29:25.547Z,93336.09
2022-08-11T16:32:14.435Z,93337.56
2022-08-11T16:35:00.934Z,93337.78
2022-08-11T16:37:47.311Z,93330.78
2022-08-11T16:40:16.245Z,93334.63
2022-08-11T16:43:10.171Z,93339.87
2022-08-11T16:45:58.871Z,93348.19
2022-08-11T16:48:36.060Z,93348.06
2022-08-11T16:51:10.787Z,93351.03
2022-08-11T16:54:00.053Z,93350.25
2022-08-11T16:56:48.344Z,93349.75
2022-08-11T16:59:19.109Z,93351.16
2022-08-11T17:01:49.056Z,93351.97
2022-08-11T17:04:42.001Z,93364.63
2022-08-11T17:07:42.301Z,93366.09
2022-08-11T17:10:50.950Z,93372.69
2022-08-11T17:13:21.460Z,93374.25
2022-08-11T17:16:09.525Z,93380.66
2022-08-11T17:18:45.862Z,93381.38
2022-08-11T17:21:19.037Z,93390.63
2022-08-11T17:23:50.534Z,93390.25
2022-08-11T17:26:20.260Z,93391.13
2022-08-11T17:28:51.557Z,93386.25
2022-08-11T17:31:42.218Z,93395.00
2022-08-11T17:34:28.767Z,93389.69
2022-08-11T17:36:57.132Z,93390.41
2022-08-11T17:39:29.498Z,93398.13
2022-08-11T17:42:16.595Z,93398.75
2022-08-11T17:45:03.727Z,93403.94
2022-08-11T17:47:51.113Z,93403.94
2022-08-11T17:50:18.952Z,93413.53
2022-08-11T17:53:06.311Z,93416.37
2022-08-11T17:55:53.903Z,93415.87
2022-08-11T17:58:41.072Z,93419.97
2022-08-11T18:01:11.046Z,93419.03
2022-08-11T18:03:41.584Z,93423.59
2022-08-11T18:06:12.562Z,93425.94
2022-08-11T18:09:02.764Z,93426.09
2022-08-11T18:12:06.810Z,93429.22
2022-08-11T18:14:58.068Z,93429.72
2022-08-11T18:17:43.516Z,93431.44
2022-08-11T18:20:29.855Z,93435.94
2022-08-11T18:23:17.031Z,93448.34
2022-08-11T18:26:07.376Z,93447.66
2022-08-11T18:29:03.779Z,93454.41
2022-08-11T18:31:54.205Z,93454.75
2022-08-11T18:34:47.226Z,93454.03
2022-08-11T18:37:42.781Z,93453.53
2022-08-11T18:40:31.054Z,93451.41
2022-08-11T18:43:21.023Z,93460.34
2022-08-11T18:46:11.433Z,93454.44
2022-08-11T18:49:06.374Z,93460.91
2022-08-11T18:51:57.714Z,93458.38
2022-08-11T18:54:44.979Z,93466.78
2022-08-11T18:57:32.333Z,93475.28
2022-08-11T19:00:23.586Z,93472.44
2022-08-11T19:03:09.544Z,93474.09
2022-08-11T19:06:35.220Z,93476.87
2022-08-11T19:09:07.634Z,93475.63
2022-08-11T19:11:55.442Z,93471.97
2022-08-11T19:14:48.351Z,93475.00
2022-08-11T19:17:44.281Z,93484.34
2022-08-11T19:20:42.074Z,93476.78
2022-08-11T19:23:30.011Z,93464.56
2022-08-11T19:26:16.965Z,93475.91
2022-08-11T19:29:04.728Z,93472.72
2022-08-11T19:31:51.115Z,93470.06
2022-08-11T19:34:38.607Z,93470.84
2022-08-11T19:37:25.983Z,93469.00
2022-08-11T19:40:13.419Z,93474.91
2022-08-11T19:43:00.600Z,93478.72
2022-08-11T19:45:51.193Z,93483.19
2022-08-11T19:48:40.094Z,93489.00
2022-08-11T19:51:27.360Z,93484.31
2022-08-11T19:54:13.787Z,93478.34
2022-08-11T19:57:00.664Z,93482.91
2022-08-11T19:59:47.049Z,93480.59
2022-08-11T20:02:33.367Z,93482.56
2022-08-11T20:05:19.760Z,93475.16
2022-08-11T20:08:06.936Z,93484.13
2022-08-11T20:10:54.468Z,93481.44
2022-08-11T20:13:42.622Z,93481.06
2022-08-11T20:16:31.563Z,93492.72
2022-08-11T20:19:18.576Z,93481.69
2022-08-11T20:22:08.928Z,93486.59
2022-08-11T20:24:56.832Z,93483.56
2022-08-11T20:27:44.122Z,93492.41
2022-08-11T20:30:30.202Z,93502.53
2022-08-11T20:33:17.061Z,93495.84
2022-08-11T20:36:04.104Z,93493.53
2022-08-11T20:38:55.019Z,93495.00
2022-08-11T20:41:58.097Z,93510.75
2022-08-11T20:44:46.025Z,93508.91
2022-08-11T20:47:56.168Z,93511.09
2022-08-11T20:50:41.866Z,93514.56
2022-08-11T20:53:35.958Z,93514.37
2022-08-11T20:56:28.309Z,93518.62
2022-08-11T21:02:27.541Z,93519.09
2022-08-11T21:05:15.829Z,93511.53
2022-08-11T21:08:11.687Z,93511.81
2022-08-11T21:10:59.790Z,93505.56
2022-08-11T21:13:51.421Z,93511.38
2022-08-11T21:16:41.673Z,93505.28
2022-08-11T21:20:00.093Z,93504.56
2022-08-11T21:22:59.064Z,93510.62
2022-08-11T21:25:59.782Z,93517.19
2022-08-11T21:28:47.279Z,93517.69
2022-08-11T21:31:34.694Z,93517.25
2022-08-11T21:34:21.408Z,93509.38
2022-08-11T21:37:09.042Z,93513.03
2022-08-11T21:39:55.649Z,93520.16
2022-08-11T21:42:42.958Z,93521.63
2022-08-11T21:45:29.159Z,93523.78
2022-08-11T21:48:15.828Z,93523.44
2022-08-11T21:51:01.935Z,93524.66
2022-08-11T21:53:48.509Z,93535.22
2022-08-11T21:56:34.961Z,93539.38
2022-08-11T21:59:22.695Z,93537.37
2022-08-11T22:02:12.539Z,93534.56
2022-08-11T22:05:00.289Z,93535.22
2022-08-11T22:07:46.892Z,93520.13
2022-08-11T22:10:42.264Z,93526.81
2022-08-11T22:13:32.071Z,93514.63
2022-08-11T22:16:19.630Z,93517.00
2022-08-11T22:19:05.941Z,93527.69
2022-08-11T22:22:02.366Z,93526.16
2022-08-11T22:24:51.249Z,93529.25
2022-08-11T22:27:37.977Z,93521.75
2022-08-11T22:30:27.882Z,93510.97
2022-08-11T22:33:16.343Z,93511.66
2022-08-11T22:36:06.903Z,93513.94
2022-08-11T22:38:53.983Z,93512.09
2022-08-11T22:41:41.293Z,93521.16
2022-08-11T22:44:28.274Z,93503.62
2022-08-11T22:47:21.932Z,93509.75
2022-08-11T22:50:11.578Z,93505.72
2022-08-11T22:52:57.489Z,93502.44
2022-08-11T22:55:44.811Z,93509.06
2022-08-11T22:58:30.995Z,93507.00
2022-08-11T23:01:17.370Z,93510.78
2022-08-11T23:04:05.363Z,93515.19
2022-08-11T23:06:53.162Z,93508.66
2022-08-11T23:09:39.370Z,93504.91
2022-08-11T23:12:26.086Z,93504.12
2022-08-11T23:15:12.508Z,93501.91
2022-08-11T23:17:58.728Z,93501.31
2022-08-11T23:20:47.069Z,93500.63
2022-08-11T23:23:36.480Z,93505.19
2022-08-11T23:26:22.990Z,93499.97
2022-08-11T23:29:09.595Z,93496.56
2022-08-11T23:31:56.421Z,93500.19
2022-08-11T23:35:37.082Z,93492.75
2022-08-11T23:37:54.087Z,93503.22
2022-08-11T23:40:40.265Z,93496.44
2022-08-11T23:43:26.481Z,93495.03
2022-08-11T23:46:12.845Z,93491.94
2022-08-11T23:48:59.579Z,93492.37
2022-08-11T23:51:46.176Z,93488.03
2022-08-11T23:54:37.168Z,93486.31
2022-08-11T23:57:23.753Z,93490.41
